createdAt,value
2017-12-01T00:01:57.011Z,40.63
2017-12-01T00:04:24.613Z,32.70
2017-12-01T00:06:52.059Z,37.27
2017-12-01T00:09:19.520Z,37.93
2017-12-01T00:11:47.109Z,36.63
2017-12-01T00:14:15.931Z,34.40
2017-12-01T00:16:43.973Z,44.60
2017-12-01T00:19:12.721Z,36.07
2017-12-01T00:21:40.180Z,41.37
2017-12-01T00:24:07.742Z,38.80
2017-12-01T00:26:35.553Z,44.67
2017-12-01T00:29:03.460Z,44.20
2017-12-01T00:31:31.402Z,41.67
2017-12-01T00:33:58.859Z,45.70
2017-12-01T00:36:26.852Z,40.60
2017-12-01T00:38:54.293Z,41.67
2017-12-01T00:41:21.769Z,37.83
2017-12-01T00:43:49.595Z,38.83
2017-12-01T00:46:17.061Z,43.90
2017-12-01T00:48:44.857Z,38.57
2017-12-01T00:51:12.516Z,38.37
2017-12-01T00:53:39.960Z,39.23
2017-12-01T00:56:07.604Z,45.70
2017-12-01T00:58:35.572Z,40.43
2017-12-01T01:01:03.042Z,37.50
2017-12-01T01:03:30.588Z,36.00
2017-12-01T01:05:58.191Z,38.63
2017-12-01T01:08:25.643Z,43.03
2017-12-01T01:10:53.161Z,40.37
2017-12-01T01:13:20.968Z,36.50
2017-12-01T01:15:48.415Z,45.00
2017-12-01T01:18:15.916Z,38.87
2017-12-01T01:20:43.396Z,40.10
2017-12-01T01:23:10.837Z,38.47
2017-12-01T01:25:38.895Z,40.17
2017-12-01T01:28:07.101Z,41.97
2017-12-01T01:30:34.922Z,42.50
2017-12-01T01:33:03.384Z,42.67
2017-12-01T01:35:30.820Z,35.60
2017-12-01T01:37:58.310Z,40.60
2017-12-01T01:40:26.163Z,38.07
2017-12-01T01:42:54.093Z,38.00
2017-12-01T01:45:21.648Z,36.93
2017-12-01T01:47:49.105Z,38.73
2017-12-01T01:50:16.664Z,35.30
2017-12-01T01:52:44.122Z,36.27
2017-12-01T01:55:11.592Z,39.70
2017-12-01T01:57:39.135Z,34.00
2017-12-01T02:00:06.649Z,36.70
2017-12-01T02:02:34.858Z,36.70
2017-12-01T02:05:02.327Z,37.47
2017-12-01T02:07:29.765Z,35.50
2017-12-01T02:09:57.249Z,39.60
2017-12-01T02:12:25.232Z,45.03
2017-12-01T02:14:52.699Z,39.23
2017-12-01T02:17:20.941Z,36.10
2017-12-01T02:19:48.492Z,34.20
2017-12-01T02:22:16.212Z,34.73
2017-12-01T02:24:44.562Z,33.87
2017-12-01T02:27:12.324Z,37.83
2017-12-01T02:29:40.300Z,40.70
2017-12-01T02:32:08.272Z,32.03
2017-12-01T02:34:35.795Z,39.37
2017-12-01T02:37:03.321Z,35.20
2017-12-01T02:39:31.558Z,35.27
2017-12-01T02:41:59.290Z,31.97
2017-12-01T02:44:27.394Z,34.27
2017-12-01T02:46:54.831Z,31.90
2017-12-01T02:49:23.327Z,35.03
2017-12-01T02:51:50.775Z,34.90
2017-12-01T02:54:18.541Z,34.90
2017-12-01T02:56:45.988Z,31.53
2017-12-01T02:59:13.460Z,33.17
2017-12-01T03:01:40.904Z,35.10
2017-12-01T03:04:08.477Z,32.93
2017-12-01T03:06:35.929Z,36.23
2017-12-01T03:09:03.769Z,34.87
2017-12-01T03:11:32.269Z,33.23
2017-12-01T03:13:59.799Z,34.57
2017-12-01T03:16:28.000Z,31.60
2017-12-01T03:18:55.477Z,35.87
2017-12-01T03:21:23.340Z,43.03
2017-12-01T03:23:50.809Z,32.03
2017-12-01T03:26:18.561Z,35.10
2017-12-01T03:28:46.089Z,36.17
2017-12-01T03:31:13.970Z,36.80
2017-12-01T03:33:41.442Z,35.43
2017-12-01T03:36:08.938Z,32.60
2017-12-01T03:38:37.159Z,33.70
2017-12-01T03:41:04.618Z,35.17
2017-12-01T03:43:32.906Z,33.63
2017-12-01T03:46:00.368Z,34.43
2017-12-01T03:48:28.031Z,36.77
2017-12-01T03:50:55.550Z,36.57
2017-12-01T03:53:23.008Z,33.53
2017-12-01T03:55:51.224Z,39.40
2017-12-01T03:58:18.692Z,31.20
2017-12-01T04:00:46.753Z,34.27
2017-12-01T04:03:14.406Z,31.87
2017-12-01T04:05:42.442Z,34.47
2017-12-01T04:08:09.896Z,32.80
2017-12-01T04:10:37.456Z,37.43
2017-12-01T04:13:05.277Z,31.77
2017-12-01T04:15:33.521Z,31.53
2017-12-01T04:18:00.969Z,32.73
2017-12-01T04:20:28.818Z,392.80
2017-12-01T04:22:56.404Z,179.83
2017-12-01T04:25:24.484Z,94.97
2017-12-01T04:27:51.962Z,66.73
2017-12-01T04:30:19.908Z,45.10
2017-12-01T04:32:48.179Z,36.70
2017-12-01T04:35:15.629Z,35.03
2017-12-01T04:37:43.113Z,31.60
2017-12-01T04:40:10.558Z,37.50
2017-12-01T04:42:40.110Z,31.67
2017-12-01T04:45:08.020Z,38.00
2017-12-01T04:47:35.553Z,36.83
2017-12-01T04:50:03.043Z,35.93
2017-12-01T04:52:30.520Z,38.00
2017-12-01T04:54:59.179Z,36.53
2017-12-01T04:57:26.621Z,33.83
2017-12-01T04:59:54.085Z,36.87
2017-12-01T05:02:22.068Z,36.43
2017-12-01T05:04:49.532Z,32.60
2017-12-01T05:07:17.004Z,40.60
2017-12-01T05:09:45.239Z,36.90
2017-12-01T05:12:12.823Z,38.50
2017-12-01T05:14:40.343Z,39.20
2017-12-01T05:17:07.924Z,43.90
2017-12-01T05:19:35.357Z,37.03
2017-12-01T05:22:02.840Z,40.33
2017-12-01T05:24:30.388Z,37.90
2017-12-01T05:26:58.364Z,32.90
2017-12-01T05:29:26.189Z,35.77
2017-12-01T05:31:54.310Z,40.97
2017-12-01T05:34:22.646Z,33.97
2017-12-01T05:36:50.665Z,38.53
2017-12-01T05:39:18.917Z,38.40
2017-12-01T05:41:46.394Z,38.90
2017-12-01T05:44:14.416Z,37.70
2017-12-01T05:46:41.874Z,37.17
2017-12-01T05:49:09.333Z,34.07
2017-12-01T05:51:36.790Z,36.00
2017-12-01T05:54:04.386Z,36.47
2017-12-01T05:56:31.952Z,38.20
2017-12-01T05:58:59.828Z,40.33
2017-12-01T06:01:28.234Z,37.70
2017-12-01T06:03:55.954Z,35.97
2017-12-01T06:06:23.388Z,40.00
2017-12-01T06:08:51.165Z,37.40
2017-12-01T06:11:18.621Z,37.73
2017-12-01T06:13:46.098Z,37.60
2017-12-01T06:16:13.643Z,34.23
2017-12-01T06:18:41.097Z,37.47
2017-12-01T06:21:08.606Z,32.80
2017-12-01T06:23:36.041Z,37.00
2017-12-01T06:26:04.332Z,39.13
2017-12-01T06:28:31.805Z,35.70
2017-12-01T06:30:59.475Z,34.03
2017-12-01T06:33:27.228Z,37.67
2017-12-01T06:35:54.681Z,36.40
2017-12-01T06:38:22.153Z,36.70
2017-12-01T06:40:49.621Z,33.00
2017-12-01T06:43:17.601Z,32.93
2017-12-01T06:45:45.043Z,37.20
2017-12-01T06:48:12.512Z,35.80
2017-12-01T06:50:40.161Z,37.87
2017-12-01T06:53:07.604Z,36.33
2017-12-01T06:55:35.129Z,48.27
2017-12-01T06:58:03.879Z,38.90
2017-12-01T07:00:31.340Z,39.60
2017-12-01T07:02:58.818Z,34.27
2017-12-01T07:05:27.037Z,39.20
2017-12-01T07:07:54.518Z,40.57
2017-12-01T07:10:22.005Z,35.43
2017-12-01T07:12:50.328Z,38.27
2017-12-01T07:15:18.944Z,39.30
2017-12-01T07:17:46.390Z,33.33
2017-12-01T07:20:13.848Z,39.67
2017-12-01T07:22:41.333Z,37.40
2017-12-01T07:25:10.202Z,42.67
2017-12-01T07:27:37.754Z,39.20
2017-12-01T07:30:05.741Z,43.00
2017-12-01T07:32:33.604Z,40.80
2017-12-01T07:35:01.051Z,40.17
2017-12-01T07:37:28.633Z,36.70
2017-12-01T07:39:56.845Z,39.87
2017-12-01T07:42:24.550Z,44.77
2017-12-01T07:48:05.982Z,42.40
2017-12-01T07:50:34.194Z,46.93
2017-12-01T07:53:01.672Z,49.47
2017-12-01T07:55:29.176Z,36.30
2017-12-01T07:57:57.384Z,40.67
2017-12-01T08:00:24.893Z,48.77
2017-12-01T08:02:53.174Z,44.77
2017-12-01T08:05:21.455Z,41.97
2017-12-01T08:07:50.145Z,51.50
2017-12-01T08:10:18.351Z,48.83
2017-12-01T08:12:45.857Z,46.73
2017-12-01T08:15:13.330Z,37.03
2017-12-01T08:17:40.882Z,40.87
2017-12-01T08:20:09.081Z,48.60
2017-12-01T08:22:48.669Z,38.50
2017-12-01T08:25:28.273Z,46.27
2017-12-01T08:27:56.870Z,40.57
2017-12-01T08:30:24.293Z,43.77
2017-12-01T08:32:52.197Z,45.80
2017-12-01T08:35:19.637Z,38.60
2017-12-01T08:37:47.086Z,46.13
2017-12-01T08:40:14.564Z,37.43
2017-12-01T08:42:42.333Z,40.70
2017-12-01T08:45:10.436Z,42.83
2017-12-01T08:47:38.289Z,42.20
2017-12-01T08:50:05.756Z,39.00
2017-12-01T08:52:33.201Z,42.80
2017-12-01T08:55:00.715Z,49.30
2017-12-01T08:57:28.175Z,41.30
2017-12-01T08:59:55.633Z,45.13
2017-12-01T09:02:23.188Z,44.37
2017-12-01T09:04:50.980Z,49.63
2017-12-01T09:07:18.455Z,49.90
2017-12-01T09:09:45.912Z,42.27
2017-12-01T09:12:13.369Z,44.67
2017-12-01T09:14:41.025Z,43.10
2017-12-01T09:17:08.466Z,41.17
2017-12-01T09:19:35.908Z,48.60
2017-12-01T09:22:03.482Z,44.90
2017-12-01T09:24:30.927Z,44.53
2017-12-01T09:26:58.785Z,49.07
2017-12-01T09:29:26.697Z,47.67
2017-12-01T09:31:54.169Z,49.30
2017-12-01T09:34:22.116Z,46.27
2017-12-01T09:36:49.582Z,47.23
2017-12-01T09:39:17.038Z,45.57
2017-12-01T09:41:44.571Z,61.27
2017-12-01T09:44:12.348Z,43.30
2017-12-01T09:46:40.114Z,48.10
2017-12-01T09:49:07.605Z,52.90
2017-12-01T09:51:35.100Z,51.97
2017-12-01T09:54:02.545Z,49.10
2017-12-01T09:56:31.650Z,50.20
2017-12-01T09:58:59.125Z,48.93
2017-12-01T10:01:26.589Z,42.67
2017-12-01T10:03:54.030Z,47.03
2017-12-01T10:06:21.718Z,53.97
2017-12-01T10:08:49.208Z,43.63
2017-12-01T10:11:17.609Z,41.50
2017-12-01T10:13:45.060Z,30.43
2017-12-01T10:16:12.777Z,26.00
2017-12-01T10:18:40.241Z,18.50
2017-12-01T10:21:07.689Z,20.90
2017-12-01T10:23:35.549Z,25.73
2017-12-01T10:26:03.210Z,22.17
2017-12-01T10:28:30.648Z,20.63
2017-12-01T10:30:58.153Z,21.50
2017-12-01T10:33:26.033Z,20.73
2017-12-01T10:35:53.515Z,23.00
2017-12-01T10:38:20.960Z,31.40
2017-12-01T10:40:48.448Z,28.23
2017-12-01T10:43:16.234Z,28.43
2017-12-01T10:45:43.689Z,32.90
2017-12-01T10:48:12.370Z,34.70
2017-12-01T10:50:39.823Z,31.97
2017-12-01T10:53:07.308Z,32.50
2017-12-01T10:55:35.528Z,32.63
2017-12-01T10:58:03.048Z,37.77
2017-12-01T11:00:31.270Z,37.03
2017-12-01T11:02:58.767Z,38.40
2017-12-01T11:05:26.345Z,32.10
2017-12-01T11:07:53.812Z,34.37
2017-12-01T11:10:21.330Z,35.40
2017-12-01T11:12:48.833Z,32.13
2017-12-01T11:15:16.298Z,30.27
2017-12-01T11:17:44.006Z,30.97
2017-12-01T11:20:11.864Z,26.17
2017-12-01T11:22:39.321Z,21.17
2017-12-01T11:25:06.798Z,17.83
2017-12-01T11:27:34.247Z,23.80
2017-12-01T11:30:02.495Z,18.33
2017-12-01T11:32:30.573Z,16.83
2017-12-01T11:34:58.059Z,18.17
2017-12-01T11:37:26.267Z,19.53
2017-12-01T11:39:53.744Z,21.57
2017-12-01T11:42:21.185Z,28.47
2017-12-01T11:44:49.084Z,26.60
2017-12-01T11:47:17.052Z,28.00
2017-12-01T11:49:44.493Z,24.90
2017-12-01T11:52:11.967Z,27.73
2017-12-01T11:54:39.428Z,25.27
2017-12-01T11:57:06.908Z,25.03
2017-12-01T11:59:35.198Z,25.10
2017-12-01T12:02:02.823Z,23.70
2017-12-01T12:04:30.303Z,20.90
2017-12-01T12:06:58.509Z,14.57
2017-12-01T12:09:26.624Z,15.20
2017-12-01T12:11:54.172Z,13.53
2017-12-01T12:14:21.641Z,15.60
2017-12-01T12:16:49.080Z,14.20
2017-12-01T12:19:16.550Z,17.07
2017-12-01T12:21:43.989Z,14.87
2017-12-01T12:24:11.866Z,14.50
2017-12-01T12:26:39.374Z,12.40
2017-12-01T12:29:07.088Z,11.07
2017-12-01T12:31:34.538Z,13.20
2017-12-01T12:34:02.318Z,11.50
2017-12-01T12:36:29.737Z,12.20
2017-12-01T12:38:57.436Z,16.33
2017-12-01T12:41:24.988Z,12.10
2017-12-01T12:43:53.154Z,15.80
2017-12-01T12:46:20.600Z,15.60
2017-12-01T12:48:48.480Z,18.43
2017-12-01T12:51:15.940Z,21.27
2017-12-01T12:53:43.462Z,30.03
2017-12-01T12:56:10.921Z,22.57
2017-12-01T12:58:38.397Z,20.53
2017-12-01T13:01:05.848Z,19.07
2017-12-01T13:03:33.287Z,17.43
2017-12-01T13:06:00.878Z,23.23
2017-12-01T13:08:28.633Z,23.97
2017-12-01T13:10:56.078Z,23.20
2017-12-01T13:13:23.625Z,21.50
2017-12-01T13:15:51.416Z,31.33
2017-12-01T13:18:19.741Z,33.30
2017-12-01T13:20:47.188Z,37.07
2017-12-01T13:23:15.428Z,33.70
2017-12-01T13:25:43.277Z,37.47
2017-12-01T13:28:10.740Z,38.07
2017-12-01T13:30:38.215Z,38.90
2017-12-01T13:33:06.188Z,39.47
2017-12-01T13:35:33.654Z,32.17
2017-12-01T13:38:01.126Z,37.10
2017-12-01T13:40:28.570Z,39.53
2017-12-01T13:42:57.334Z,40.53
2017-12-01T13:45:24.804Z,36.07
2017-12-01T13:47:52.685Z,38.60
2017-12-01T13:50:20.123Z,47.67
2017-12-01T13:52:47.606Z,40.43
2017-12-01T13:55:15.916Z,36.47
2017-12-01T13:57:43.368Z,38.50
2017-12-01T14:00:10.830Z,40.40
2017-12-01T14:02:38.310Z,35.50
2017-12-01T14:05:05.746Z,47.67
2017-12-01T14:07:33.463Z,40.27
2017-12-01T14:10:01.681Z,42.17
2017-12-01T14:12:29.384Z,39.87
2017-12-01T14:14:57.446Z,44.50
2017-12-01T14:17:24.994Z,36.87
2017-12-01T14:19:52.625Z,35.33
2017-12-01T14:22:20.061Z,40.97
2017-12-01T14:24:47.729Z,41.30
2017-12-01T14:27:15.182Z,43.03
2017-12-01T14:29:42.730Z,36.40
2017-12-01T14:32:10.942Z,39.40
2017-12-01T14:34:38.825Z,40.97
2017-12-01T14:37:06.356Z,48.83
2017-12-01T14:39:34.354Z,45.50
2017-12-01T14:42:01.836Z,37.80
2017-12-01T14:44:29.886Z,36.97
2017-12-01T14:46:57.346Z,43.20
2017-12-01T14:49:25.379Z,39.93
2017-12-01T14:51:52.836Z,42.43
2017-12-01T14:54:20.764Z,41.60
2017-12-01T14:56:48.205Z,39.47
2017-12-01T14:59:15.653Z,38.50
2017-12-01T15:01:43.178Z,43.40
2017-12-01T15:04:10.713Z,40.90
2017-12-01T15:06:38.330Z,38.30
2017-12-01T15:09:05.788Z,47.63
2017-12-01T15:11:34.444Z,39.60
2017-12-01T15:14:02.059Z,42.47
2017-12-01T15:16:30.819Z,44.53
2017-12-01T15:18:58.265Z,155.20
2017-12-01T15:21:25.767Z,797.83
2017-12-01T15:23:53.315Z,402.43
2017-12-01T15:26:20.966Z,807.90
2017-12-01T15:28:48.736Z,498.20
2017-12-01T15:31:16.274Z,121.70
2017-12-01T15:33:44.285Z,50.60
2017-12-01T15:36:12.598Z,49.27
2017-12-01T15:38:40.158Z,42.93
2017-12-01T15:41:07.715Z,43.30
2017-12-01T15:43:36.093Z,45.87
2017-12-01T15:46:03.580Z,39.57
2017-12-01T15:48:31.571Z,639.97
2017-12-01T15:50:59.594Z,356.70
2017-12-01T15:53:27.292Z,84.87
2017-12-01T15:55:55.534Z,83.40
2017-12-01T15:58:23.022Z,45.33
2017-12-01T16:00:50.803Z,41.90
2017-12-01T16:03:18.288Z,41.90
2017-12-01T16:05:45.734Z,41.43
2017-12-01T16:08:13.323Z,42.33
2017-12-01T16:10:40.756Z,45.87
2017-12-01T16:13:08.266Z,43.90
2017-12-01T16:15:36.477Z,39.73
2017-12-01T16:18:04.694Z,41.33
2017-12-01T16:20:32.204Z,42.63
2017-12-01T16:23:00.422Z,39.73
2017-12-01T16:25:28.002Z,40.80
2017-12-01T16:27:55.662Z,40.73
2017-12-01T16:30:24.971Z,45.40
2017-12-01T16:33:00.225Z,38.00
2017-12-01T16:35:21.163Z,50.97
2017-12-01T16:37:49.145Z,45.73
2017-12-01T16:40:17.154Z,47.10
2017-12-01T16:42:46.041Z,43.33
2017-12-01T16:45:14.564Z,47.03
2017-12-01T16:47:42.802Z,39.73
2017-12-01T16:50:10.662Z,41.33
2017-12-01T16:52:38.318Z,44.70
2017-12-01T16:55:05.838Z,43.23
2017-12-01T16:57:33.346Z,43.97
2017-12-01T17:00:01.742Z,43.33
2017-12-01T17:02:30.095Z,53.30
2017-12-01T17:04:57.542Z,39.60
2017-12-01T17:07:25.015Z,49.37
2017-12-01T17:09:52.489Z,46.60
2017-12-01T17:12:20.706Z,45.10
2017-12-01T17:14:48.201Z,51.63
2017-12-01T17:17:15.646Z,53.80
2017-12-01T17:19:43.178Z,50.17
2017-12-01T17:22:10.846Z,52.33
2017-12-01T17:24:38.483Z,55.57
2017-12-01T17:27:05.909Z,50.13
2017-12-01T17:29:34.697Z,48.80
2017-12-01T17:32:02.811Z,46.73
2017-12-01T17:34:30.817Z,62.30
2017-12-01T17:36:58.441Z,57.77
2017-12-01T17:39:25.914Z,53.53
2017-12-01T17:41:53.387Z,55.23
2017-12-01T17:44:21.376Z,52.00
2017-12-01T17:46:48.925Z,52.57
2017-12-01T17:49:16.888Z,58.50
2017-12-01T17:51:44.340Z,45.73
2017-12-01T17:54:11.828Z,67.17
2017-12-01T17:56:39.301Z,51.70
2017-12-01T17:59:06.793Z,59.97
2017-12-01T18:01:34.237Z,61.10
2017-12-01T18:04:01.838Z,53.07
2017-12-01T18:06:29.680Z,48.70
2017-12-01T18:08:57.254Z,54.17
2017-12-01T18:11:24.753Z,59.87
2017-12-01T18:13:52.225Z,64.97
2017-12-01T18:16:19.676Z,68.67
2017-12-01T18:18:47.557Z,65.37
2017-12-01T18:21:15.153Z,199.33
2017-12-01T18:23:43.389Z,197.30
2017-12-01T18:26:11.359Z,118.07
2017-12-01T18:28:39.566Z,137.33
2017-12-01T18:31:07.560Z,83.63
2017-12-01T18:33:35.011Z,71.23
2017-12-01T18:36:02.923Z,75.60
2017-12-01T18:38:30.416Z,61.27
2017-12-01T18:40:57.875Z,68.30
2017-12-01T18:43:25.876Z,75.67
2017-12-01T18:45:54.124Z,66.83
2017-12-01T18:48:21.598Z,69.50
2017-12-01T18:50:49.623Z,60.87
2017-12-01T18:53:17.072Z,74.70
2017-12-01T18:55:44.565Z,74.17
2017-12-01T18:58:12.186Z,65.77
2017-12-01T19:00:39.627Z,77.30
2017-12-01T19:03:07.171Z,67.30
2017-12-01T19:05:36.036Z,72.47
2017-12-01T19:08:03.528Z,81.87
2017-12-01T19:10:31.753Z,82.17
2017-12-01T19:12:59.723Z,73.07
2017-12-01T19:15:27.175Z,87.43
2017-12-01T19:17:54.711Z,97.10
2017-12-01T19:20:22.584Z,99.90
2017-12-01T19:22:50.484Z,97.13
2017-12-01T19:25:18.114Z,92.63
2017-12-01T19:27:45.598Z,78.68
2017-12-01T19:30:13.844Z,66.27
2017-12-01T19:32:41.394Z,70.03
2017-12-01T19:35:09.397Z,66.33
2017-12-01T19:37:36.892Z,74.07
2017-12-01T19:40:04.373Z,72.20
2017-12-01T19:42:31.914Z,78.17
2017-12-01T19:45:00.005Z,76.03
2017-12-01T19:47:27.745Z,73.57
2017-12-01T19:49:55.784Z,67.43
2017-12-01T19:52:23.289Z,71.13
2017-12-01T19:54:50.749Z,69.13
2017-12-01T19:57:18.223Z,63.90
2017-12-01T19:59:45.745Z,64.13
2017-12-01T20:02:13.348Z,65.50
2017-12-01T20:04:41.846Z,76.57
2017-12-01T20:07:09.301Z,60.57
2017-12-01T20:09:36.832Z,63.17
2017-12-01T20:12:04.817Z,61.97
2017-12-01T20:14:32.316Z,62.80
2017-12-01T20:17:00.537Z,61.43
2017-12-01T20:19:28.077Z,63.10
2017-12-01T20:21:55.638Z,61.33
2017-12-01T20:24:23.104Z,67.77
2017-12-01T20:26:50.552Z,58.40
2017-12-01T20:29:18.518Z,65.60
2017-12-01T20:31:46.283Z,58.43
2017-12-01T20:34:13.849Z,55.70
2017-12-01T20:36:42.090Z,51.07
2017-12-01T20:39:10.334Z,78.00
2017-12-01T20:41:37.784Z,73.30
2017-12-01T20:44:05.641Z,68.27
2017-12-01T20:46:33.129Z,64.55
2017-12-01T20:49:01.374Z,62.37
2017-12-01T20:51:29.549Z,59.30
2017-12-01T20:53:57.018Z,63.47
2017-12-01T20:56:24.508Z,68.47
2017-12-01T20:58:53.448Z,72.93
2017-12-01T21:01:20.906Z,75.57
2017-12-01T21:03:48.413Z,67.23
2017-12-01T21:06:16.790Z,79.67
2017-12-01T21:08:45.126Z,67.03
2017-12-01T21:11:12.589Z,75.03
2017-12-01T21:13:40.038Z,66.40
2017-12-01T21:16:08.283Z,68.33
2017-12-01T21:18:35.744Z,72.73
2017-12-01T21:21:04.023Z,67.17
2017-12-01T21:23:31.512Z,79.23
2017-12-01T21:25:59.002Z,71.50
2017-12-01T21:28:26.792Z,70.43
2017-12-01T21:30:54.274Z,66.62
2017-12-01T21:33:21.846Z,71.55
2017-12-01T21:35:50.185Z,65.70
2017-12-01T21:38:17.844Z,72.32
2017-12-01T21:40:45.379Z,66.35
2017-12-01T21:43:13.420Z,69.60
2017-12-01T21:45:40.874Z,59.10
2017-12-01T21:48:08.368Z,65.40
2017-12-01T21:50:37.252Z,57.97
2017-12-01T21:53:05.475Z,57.37
2017-12-01T21:55:33.213Z,49.90
2017-12-01T21:58:01.229Z,50.13
2017-12-01T22:00:28.766Z,45.17
2017-12-01T22:02:56.206Z,47.70
2017-12-01T22:05:23.807Z,41.00
2017-12-01T22:07:52.034Z,47.17
2017-12-01T22:10:19.640Z,43.20
2017-12-01T22:12:47.147Z,44.30
2017-12-01T22:15:15.248Z,52.07
2017-12-01T22:17:42.709Z,44.17
2017-12-01T22:20:10.449Z,53.17
2017-12-01T22:22:37.891Z,45.10
2017-12-01T22:25:05.470Z,55.90
2017-12-01T22:27:32.979Z,54.63
2017-12-01T22:30:02.362Z,42.05
2017-12-01T22:32:30.897Z,42.37
2017-12-01T22:34:58.389Z,47.53
2017-12-01T22:37:26.061Z,53.55
2017-12-01T22:39:53.691Z,48.77
2017-12-01T22:42:21.148Z,43.60
2017-12-01T22:44:49.272Z,53.63
2017-12-01T22:47:17.834Z,61.50
2017-12-01T22:49:45.349Z,65.25
2017-12-01T22:52:13.242Z,54.37
2017-12-01T22:54:40.691Z,57.57
2017-12-01T22:57:08.149Z,45.27
2017-12-01T22:59:35.840Z,47.77
2017-12-01T23:02:03.420Z,42.83
2017-12-01T23:04:30.908Z,50.03
2017-12-01T23:06:58.373Z,49.87
2017-12-01T23:09:26.129Z,58.92
2017-12-01T23:11:53.585Z,46.25
2017-12-01T23:14:21.104Z,50.80
2017-12-01T23:16:49.413Z,41.80
2017-12-01T23:19:17.528Z,46.07
2017-12-01T23:21:44.975Z,48.00
2017-12-01T23:24:12.443Z,70.80
2017-12-01T23:26:39.942Z,45.57
2017-12-01T23:29:07.655Z,46.58
2017-12-01T23:31:35.162Z,42.00
2017-12-01T23:34:03.076Z,50.00
2017-12-01T23:36:30.554Z,48.40
2017-12-01T23:38:58.810Z,51.30
2017-12-01T23:41:26.843Z,42.03
2017-12-01T23:43:54.736Z,45.40
2017-12-01T23:46:22.267Z,43.47
2017-12-01T23:48:49.810Z,42.80
2017-12-01T23:51:18.129Z,38.05
2017-12-01T23:53:45.616Z,36.63
2017-12-01T23:56:13.939Z,42.30
2017-12-01T23:58:41.496Z,49.80
